マン島 の空港の天気 - METARとTAF

マン島空港 ( EGNS / IOM ) - マン島 Isle of Man
飛行場実況気象(Metar)
観測時間01/20 02:50 GMT (01/20 02:50 UTC)
風向・風速北 2m/s
視程6000m
天気現象弱い霧雨
全天の4割程度の雲 雲底高度 270m
全天を覆う雲 雲底高度 730m
気温5℃
湿度93%
気圧1013hPa
METAREGNS 200250Z 01004KT 290V040 6000 -DZ SCT009 OVC024 05/04 Q1013
過去の天気等 Google飛行場航空写真 Wunderground天気予報

過去48時間のMETAR

飛行場予報(TAF)
発表時間: 1/19 17:00 GMT (1/19 17:00 UTC)
予報対象時間: 19日18時 GMT ~ 19日22時 GMT
風向・風速東 6m/s
視程10km以上
全天の4割程度の雲 雲底高度 240m
全天の8割程度の雲 雲底高度 400m
19日18時 GMT ~ 19日22時 GMT に 確率 30% で一時的に
視程6000m
天気現象弱い霧雨
全天の8割程度の雲 雲底高度 240m
TAF EGNS 191700Z 1918/1922 08012KT 9999 SCT008 BKN013
PROB30 TEMPO 1918/1922 6000 -DZ BKN008